Time;durP1;ratioP1;P1;durP2;ratioP2;P2;SDS_P1;SDS_P2;PMS_P1;PMS_P2;Temp;Humidity;BMP_temperature;BMP_pressure;BME280_temperature;BME280_humidity;BME280_pressure;Samples;Min_cycle;Max_cycle;Signal;HPM_P1;HPM_P2
2023/05/14 00:01:02;;;;;;;8.90;5.18;;;;;;;;;;2088773;28;20044;-65
2023/05/14 00:02:21;;;;;;;8.70;4.93;;;;;;;;;;2094185;28;20393;-63
2023/05/14 00:03:40;;;;;;;6.78;5.00;;;;;;;;;;2092756;28;20029;-63
2023/05/14 00:04:59;;;;;;;9.05;5.00;;;;;;;;;;2089975;28;20025;-63
2023/05/14 00:06:18;;;;;;;6.82;5.30;;;;;;;;;;2092068;28;20029;-63
2023/05/14 00:07:36;;;;;;;8.38;4.60;;;;;;;;;;2093289;28;20032;-63
2023/05/14 00:08:56;;;;;;;7.85;5.35;;;;;;;;;;2096268;28;20075;-63
2023/05/14 00:10:17;;;;;;;8.63;5.47;;;;;;;;;;2094530;28;20032;-63
2023/05/14 00:11:36;;;;;;;6.57;5.30;;;;;;;;;;2092895;28;20111;-63
2023/05/14 00:12:56;;;;;;;11.05;5.70;;;;;;;;;;2080887;28;20033;-63
2023/05/14 00:14:15;;;;;;;8.70;5.25;;;;;;;;;;2096037;28;20045;-63
2023/05/14 00:15:33;;;;;;;7.05;4.65;;;;;;;;;;2089722;28;20029;-63
2023/05/14 00:16:52;;;;;;;12.38;4.47;;;;;;;;;;2090346;28;20016;-63
2023/05/14 00:18:12;;;;;;;8.27;5.22;;;;;;;;;;2090694;28;20108;-63
2023/05/14 00:19:31;;;;;;;7.68;4.80;;;;;;;;;;2093426;28;20048;-63
2023/05/14 00:20:53;;;;;;;9.13;5.05;;;;;;;;;;2093615;28;20440;-62
2023/05/14 00:22:12;;;;;;;7.05;5.22;;;;;;;;;;2090783;28;20028;-62
2023/05/14 00:23:31;;;;;;;8.73;5.30;;;;;;;;;;2090300;28;20444;-63
2023/05/14 00:24:50;;;;;;;5.53;4.80;;;;;;;;;;2091429;28;20447;-63
2023/05/14 00:26:08;;;;;;;4.93;4.50;;;;;;;;;;2092902;28;20124;-63
2023/05/14 00:27:27;;;;;;;9.30;5.60;;;;;;;;;;2093889;28;20559;-63
2023/05/14 00:28:47;;;;;;;7.40;4.80;;;;;;;;;;2090795;28;20024;-63
2023/05/14 00:30:07;;;;;;;9.77;5.20;;;;;;;;;;2085672;28;20034;-63
2023/05/14 00:31:25;;;;;;;10.07;5.55;;;;;;;;;;2091195;28;20472;-62
2023/05/14 00:32:44;;;;;;;8.00;5.15;;;;;;;;;;2092995;28;20500;-63
2023/05/14 00:34:03;;;;;;;7.10;4.88;;;;;;;;;;2090208;28;21080;-63
2023/05/14 00:35:22;;;;;;;6.82;4.70;;;;;;;;;;2092025;28;20025;-62
2023/05/14 00:36:41;;;;;;;10.70;5.00;;;;;;;;;;2092744;28;20033;-63
2023/05/14 00:38:01;;;;;;;7.47;5.45;;;;;;;;;;2093084;28;20033;-63
2023/05/14 00:39:20;;;;;;;7.25;5.70;;;;;;;;;;2091812;28;20018;-63
2023/05/14 00:40:42;;;;;;;10.98;5.32;;;;;;;;;;2090324;28;20078;-63
2023/05/14 00:42:01;;;;;;;11.98;5.43;;;;;;;;;;2091354;28;20025;-62
2023/05/14 00:43:21;;;;;;;8.55;5.03;;;;;;;;;;2090388;28;20932;-63
2023/05/14 00:44:40;;;;;;;8.07;5.22;;;;;;;;;;2090445;28;20020;-62
2023/05/14 00:45:59;;;;;;;6.53;4.70;;;;;;;;;;2086488;28;20426;-63
2023/05/14 00:47:19;;;;;;;6.32;4.57;;;;;;;;;;2089750;28;20194;-63
2023/05/14 00:48:37;;;;;;;9.20;4.95;;;;;;;;;;2084181;28;20033;-63
2023/05/14 00:49:56;;;;;;;8.57;5.05;;;;;;;;;;2093872;28;20020;-63
2023/05/14 00:51:16;;;;;;;6.47;5.30;;;;;;;;;;2093799;28;20036;-63
2023/05/14 00:52:36;;;;;;;7.75;5.53;;;;;;;;;;2090870;28;20454;-62
2023/05/14 00:53:55;;;;;;;5.57;4.22;;;;;;;;;;2086658;28;20703;-63
2023/05/14 00:55:15;;;;;;;7.63;4.50;;;;;;;;;;2094661;28;20029;-63
2023/05/14 00:56:34;;;;;;;7.65;4.65;;;;;;;;;;2090441;28;20032;-63
2023/05/14 00:57:53;;;;;;;8.88;4.90;;;;;;;;;;2090406;28;20024;-63
2023/05/14 00:59:12;;;;;;;6.95;4.82;;;;;;;;;;2088611;28;20036;-63
2023/05/14 01:00:31;;;;;;;6.00;4.80;;;;;;;;;;2092585;28;20029;-63
2023/05/14 01:01:50;;;;;;;6.05;4.53;;;;;;;;;;2092681;28;20029;-63
2023/05/14 01:03:10;;;;;;;7.38;5.05;;;;;;;;;;2087018;28;20029;-63
2023/05/14 01:04:29;;;;;;;7.53;5.50;;;;;;;;;;2091584;28;20069;-63
2023/05/14 01:06:07;;;;;;;6.70;5.10;;;;;;;;;;2087273;28;20505;-63
2023/05/14 01:07:36;;;;;;;7.30;4.95;;;;;;;;;;2089639;28;20028;-64
2023/05/14 01:09:00;;;;;;;7.10;4.97;;;;;;;;;;2091641;28;20040;-64
2023/05/14 01:10:31;;;;;;;5.30;4.90;;;;;;;;;;2093048;28;20041;-63
2023/05/14 01:11:53;;;;;;;9.40;5.60;;;;;;;;;;2089074;28;20025;-64
2023/05/14 01:13:19;;;;;;;5.80;5.40;;;;;;;;;;2087617;28;20061;-63
2023/05/14 01:14:47;;;;;;;6.13;5.57;;;;;;;;;;2085475;28;20048;-64
2023/05/14 01:16:09;;;;;;;9.52;5.78;;;;;;;;;;2087911;28;20017;-63
2023/05/14 01:17:31;;;;;;;7.50;5.47;;;;;;;;;;2091959;28;20540;-64
2023/05/14 01:18:51;;;;;;;6.32;5.70;;;;;;;;;;2091604;28;20505;-63
2023/05/14 01:20:11;;;;;;;6.00;5.43;;;;;;;;;;2089049;28;20496;-64
2023/05/14 01:21:39;;;;;;;10.77;5.30;;;;;;;;;;2090178;28;20030;-63
2023/05/14 01:22:58;;;;;;;7.13;5.18;;;;;;;;;;2082081;28;20057;-63
2023/05/14 01:24:17;;;;;;;5.43;4.93;;;;;;;;;;2092217;28;20397;-63
2023/05/14 01:25:36;;;;;;;5.20;4.80;;;;;;;;;;2090937;28;20433;-62
2023/05/14 01:26:57;;;;;;;6.85;5.00;;;;;;;;;;2090860;28;20025;-63
2023/05/14 01:28:17;;;;;;;7.28;5.65;;;;;;;;;;2091236;28;20024;-63
2023/05/14 01:29:39;;;;;;;11.85;5.60;;;;;;;;;;2094381;28;20028;-63
2023/05/14 01:31:17;;;;;;;6.53;5.93;;;;;;;;;;2087939;28;20036;-64
2023/05/14 01:32:35;;;;;;;7.82;5.65;;;;;;;;;;2088848;28;20032;-63
2023/05/14 01:33:57;;;;;;;8.88;5.38;;;;;;;;;;2093614;28;20413;-63
2023/05/14 01:35:16;;;;;;;5.82;5.00;;;;;;;;;;2090451;28;20156;-63
2023/05/14 01:36:35;;;;;;;7.43;5.50;;;;;;;;;;2090303;28;20051;-64
2023/05/14 01:37:59;;;;;;;6.90;5.07;;;;;;;;;;2093892;28;20021;-63
2023/05/14 01:39:18;;;;;;;5.97;5.13;;;;;;;;;;2090358;28;20029;-63
2023/05/14 01:40:38;;;;;;;6.53;5.30;;;;;;;;;;2083788;28;20013;-63
2023/05/14 01:41:57;;;;;;;5.38;4.88;;;;;;;;;;2088134;28;20401;-62
2023/05/14 01:43:17;;;;;;;6.13;5.53;;;;;;;;;;2086689;28;20033;-62
2023/05/14 01:44:36;;;;;;;9.13;4.93;;;;;;;;;;2092775;28;20033;-63
2023/05/14 01:45:55;;;;;;;5.70;5.18;;;;;;;;;;2086331;28;20033;-63
2023/05/14 01:47:14;;;;;;;5.90;5.18;;;;;;;;;;2087946;28;20029;-63
2023/05/14 01:48:33;;;;;;;5.50;4.68;;;;;;;;;;2091080;28;20028;-63
2023/05/14 01:49:52;;;;;;;7.85;5.38;;;;;;;;;;2089440;28;20033;-63
2023/05/14 01:51:13;;;;;;;5.90;5.38;;;;;;;;;;2090913;28;20020;-63
2023/05/14 01:52:32;;;;;;;9.65;5.65;;;;;;;;;;2090911;28;20036;-64
2023/05/14 01:53:51;;;;;;;9.27;5.22;;;;;;;;;;2088185;28;20032;-64
2023/05/14 01:55:10;;;;;;;6.50;5.38;;;;;;;;;;2090195;28;20033;-64
2023/05/14 01:56:29;;;;;;;11.95;5.90;;;;;;;;;;2093086;28;20028;-63
2023/05/14 01:57:48;;;;;;;7.55;5.47;;;;;;;;;;2088953;28;20032;-63
2023/05/14 01:59:07;;;;;;;9.05;5.68;;;;;;;;;;2090522;28;20473;-63
2023/05/14 02:00:26;;;;;;;12.00;5.93;;;;;;;;;;2086900;28;20036;-63
2023/05/14 02:01:45;;;;;;;5.65;5.20;;;;;;;;;;2090120;28;20032;-63
2023/05/14 02:03:04;;;;;;;10.23;5.93;;;;;;;;;;2091831;28;20469;-63
2023/05/14 02:04:23;;;;;;;10.82;6.10;;;;;;;;;;2088827;28;20032;-63
2023/05/14 02:05:42;;;;;;;6.70;5.43;;;;;;;;;;2088842;28;20119;-63
2023/05/14 02:07:01;;;;;;;7.97;6.32;;;;;;;;;;2088728;28;20111;-63
2023/05/14 02:08:21;;;;;;;7.65;5.85;;;;;;;;;;2092703;28;21068;-63
2023/05/14 02:09:40;;;;;;;9.15;6.15;;;;;;;;;;2088234;28;20485;-63
2023/05/14 02:10:59;;;;;;;6.88;6.18;;;;;;;;;;2088344;28;20028;-63
2023/05/14 02:12:18;;;;;;;9.18;5.72;;;;;;;;;;2092838;28;20056;-63
2023/05/14 02:13:37;;;;;;;6.53;5.43;;;;;;;;;;2095060;28;20037;-63
2023/05/14 02:14:56;;;;;;;5.88;5.25;;;;;;;;;;2087603;28;20029;-63
2023/05/14 02:16:14;;;;;;;7.88;5.32;;;;;;;;;;2090509;28;20104;-63
2023/05/14 02:17:33;;;;;;;9.05;6.25;;;;;;;;;;2092202;28;20036;-64
2023/05/14 02:18:52;;;;;;;6.00;4.95;;;;;;;;;;2090355;28;20017;-63
2023/05/14 02:20:11;;;;;;;6.88;5.97;;;;;;;;;;2090744;28;20025;-63
2023/05/14 02:21:30;;;;;;;10.40;5.85;;;;;;;;;;2090704;28;20112;-63
2023/05/14 02:22:49;;;;;;;9.00;5.78;;;;;;;;;;2090293;28;20013;-63
2023/05/14 02:24:08;;;;;;;13.15;6.47;;;;;;;;;;2092169;28;20024;-62
2023/05/14 02:25:27;;;;;;;9.57;5.80;;;;;;;;;;2090066;28;20718;-63
2023/05/14 02:26:47;;;;;;;9.25;6.35;;;;;;;;;;2087639;28;20111;-63
2023/05/14 02:28:06;;;;;;;7.80;5.82;;;;;;;;;;2090370;28;20502;-62
2023/05/14 02:29:25;;;;;;;6.75;6.00;;;;;;;;;;2091292;28;20036;-63
2023/05/14 02:30:44;;;;;;;7.65;5.82;;;;;;;;;;2092641;28;20493;-63
2023/05/14 02:32:04;;;;;;;9.40;5.68;;;;;;;;;;2085870;28;20029;-63
2023/05/14 02:33:23;;;;;;;12.18;5.65;;;;;;;;;;2088561;28;20041;-62
2023/05/14 02:34:42;;;;;;;12.55;6.45;;;;;;;;;;2086006;28;20024;-63
2023/05/14 02:36:01;;;;;;;6.70;5.90;;;;;;;;;;2087635;28;20048;-63
2023/05/14 02:37:20;;;;;;;7.80;5.90;;;;;;;;;;2091275;28;20032;-63
2023/05/14 02:38:39;;;;;;;6.80;6.05;;;;;;;;;;2088967;28;20021;-63
2023/05/14 02:39:58;;;;;;;7.47;5.80;;;;;;;;;;2090746;28;20029;-62
2023/05/14 02:41:17;;;;;;;13.90;6.43;;;;;;;;;;2093279;28;20020;-63
2023/05/14 02:42:35;;;;;;;6.65;5.63;;;;;;;;;;2090988;28;20051;-62
2023/05/14 02:43:54;;;;;;;12.23;6.68;;;;;;;;;;2088004;28;20025;-62
2023/05/14 02:45:16;;;;;;;7.15;6.35;;;;;;;;;;2085053;28;20593;-62
2023/05/14 02:46:35;;;;;;;5.38;4.88;;;;;;;;;;2092806;28;20338;-62
2023/05/14 02:47:54;;;;;;;6.55;5.50;;;;;;;;;;2092419;28;20029;-62
2023/05/14 02:49:13;;;;;;;7.70;5.40;;;;;;;;;;2093507;28;20033;-62
2023/05/14 02:50:32;;;;;;;5.72;5.15;;;;;;;;;;2091132;28;20440;-63
2023/05/14 02:51:53;;;;;;;6.10;5.53;;;;;;;;;;2085990;28;20824;-63
2023/05/14 02:53:11;;;;;;;8.18;6.55;;;;;;;;;;2091156;28;20029;-62
2023/05/14 02:54:30;;;;;;;6.75;5.95;;;;;;;;;;2092090;28;20028;-63
2023/05/14 02:55:49;;;;;;;6.35;5.80;;;;;;;;;;2093439;28;20021;-63
2023/05/14 02:57:08;;;;;;;6.88;5.88;;;;;;;;;;2091593;28;20460;-63
2023/05/14 02:58:27;;;;;;;10.23;5.95;;;;;;;;;;2090515;28;20478;-63
2023/05/14 02:59:46;;;;;;;8.75;5.68;;;;;;;;;;2091310;28;20034;-63
2023/05/14 03:01:05;;;;;;;6.63;5.72;;;;;;;;;;2092266;28;20103;-63
2023/05/14 03:02:24;;;;;;;7.07;5.65;;;;;;;;;;2088491;28;20382;-63
2023/05/14 03:03:43;;;;;;;7.82;5.60;;;;;;;;;;2090794;28;20041;-63
2023/05/14 03:05:02;;;;;;;14.30;6.05;;;;;;;;;;2092668;28;20059;-62
2023/05/14 03:06:21;;;;;;;7.07;5.70;;;;;;;;;;2090502;28;20033;-62
2023/05/14 03:07:40;;;;;;;6.68;6.03;;;;;;;;;;2090619;28;20032;-62
2023/05/14 03:08:59;;;;;;;6.68;5.82;;;;;;;;;;2092082;28;20044;-62
2023/05/14 03:10:18;;;;;;;10.20;5.97;;;;;;;;;;2090031;28;20108;-62
2023/05/14 03:11:37;;;;;;;7.13;6.00;;;;;;;;;;2093439;28;20033;-63
2023/05/14 03:12:56;;;;;;;5.90;5.30;;;;;;;;;;2092001;28;20025;-63
2023/05/14 03:14:15;;;;;;;6.32;5.35;;;;;;;;;;2091748;28;20033;-63
2023/05/14 03:15:34;;;;;;;9.18;5.72;;;;;;;;;;2093384;28;20025;-63
2023/05/14 03:16:53;;;;;;;10.10;5.45;;;;;;;;;;2093374;28;20474;-63
2023/05/14 03:18:12;;;;;;;6.43;5.68;;;;;;;;;;2095072;28;20037;-63
2023/05/14 03:19:31;;;;;;;6.85;5.68;;;;;;;;;;2091941;28;20024;-62
2023/05/14 03:20:50;;;;;;;6.63;5.75;;;;;;;;;;2095271;28;20028;-63
2023/05/14 03:22:09;;;;;;;11.18;5.90;;;;;;;;;;2090937;28;20032;-63
2023/05/14 03:23:30;;;;;;;9.07;6.32;;;;;;;;;;2086691;28;20494;-63
2023/05/14 03:24:49;;;;;;;8.23;5.75;;;;;;;;;;2091165;28;20029;-63
2023/05/14 03:26:09;;;;;;;10.43;6.20;;;;;;;;;;2093823;28;20060;-63
2023/05/14 03:27:28;;;;;;;7.43;5.93;;;;;;;;;;2087436;28;20033;-63
2023/05/14 03:28:47;;;;;;;7.35;5.68;;;;;;;;;;2087780;28;20052;-64
2023/05/14 03:30:06;;;;;;;7.38;6.15;;;;;;;;;;2092829;28;20037;-64
2023/05/14 03:31:25;;;;;;;6.70;5.60;;;;;;;;;;2093293;28;20413;-64
2023/05/14 03:32:44;;;;;;;7.47;4.88;;;;;;;;;;2089964;28;20374;-64
2023/05/14 03:34:06;;;;;;;6.38;5.28;;;;;;;;;;2092485;28;20064;-64
2023/05/14 03:35:25;;;;;;;6.45;5.03;;;;;;;;;;2092929;28;20017;-63
2023/05/14 03:36:44;;;;;;;5.15;4.72;;;;;;;;;;2089912;28;20021;-63
2023/05/14 03:38:03;;;;;;;6.70;4.82;;;;;;;;;;2092227;28;20029;-63
2023/05/14 03:39:22;;;;;;;6.55;5.35;;;;;;;;;;2093086;28;20017;-63
2023/05/14 03:40:41;;;;;;;5.47;5.03;;;;;;;;;;2090914;28;20029;-63
2023/05/14 03:42:00;;;;;;;7.15;5.70;;;;;;;;;;2092042;28;20033;-63
2023/05/14 03:43:19;;;;;;;9.43;5.65;;;;;;;;;;2091796;28;20033;-63
2023/05/14 03:44:38;;;;;;;8.00;5.78;;;;;;;;;;2092005;28;20501;-63
2023/05/14 03:45:57;;;;;;;6.75;6.00;;;;;;;;;;2091184;28;20499;-63
2023/05/14 03:47:16;;;;;;;6.22;5.10;;;;;;;;;;2091544;28;20028;-63
2023/05/14 03:48:35;;;;;;;10.25;5.63;;;;;;;;;;2093462;28;20028;-63
2023/05/14 03:49:55;;;;;;;6.18;5.43;;;;;;;;;;2094250;28;20066;-63
2023/05/14 03:51:14;;;;;;;7.45;5.68;;;;;;;;;;2090930;28;20029;-62
2023/05/14 03:52:33;;;;;;;5.70;5.30;;;;;;;;;;2091177;28;20115;-63
2023/05/14 03:53:52;;;;;;;7.95;5.60;;;;;;;;;;2094715;28;20107;-63
2023/05/14 03:55:11;;;;;;;6.28;5.68;;;;;;;;;;2096147;28;20025;-63
2023/05/14 03:56:30;;;;;;;9.73;5.38;;;;;;;;;;2093977;28;20029;-62
2023/05/14 03:57:48;;;;;;;12.68;5.15;;;;;;;;;;2091267;28;20025;-62
2023/05/14 03:59:07;;;;;;;7.65;6.13;;;;;;;;;;2089371;28;20401;-62
2023/05/14 04:00:26;;;;;;;5.97;5.38;;;;;;;;;;2091529;28;20444;-62
2023/05/14 04:01:45;;;;;;;8.50;5.65;;;;;;;;;;2091192;28;20037;-62
2023/05/14 04:03:04;;;;;;;5.68;5.15;;;;;;;;;;2094085;28;20032;-62
2023/05/14 04:04:23;;;;;;;8.10;6.20;;;;;;;;;;2092385;28;20486;-62
2023/05/14 04:05:42;;;;;;;9.75;5.25;;;;;;;;;;2093104;28;20044;-63
2023/05/14 04:07:01;;;;;;;7.60;5.63;;;;;;;;;;2091246;28;20033;-62
2023/05/14 04:08:20;;;;;;;6.15;5.45;;;;;;;;;;2090687;28;20037;-63
2023/05/14 04:09:39;;;;;;;6.95;5.28;;;;;;;;;;2092935;28;20029;-62
2023/05/14 04:10:58;;;;;;;9.10;5.80;;;;;;;;;;2096639;28;20021;-64
2023/05/14 04:12:17;;;;;;;6.35;5.80;;;;;;;;;;2091304;28;20656;-62
2023/05/14 04:13:36;;;;;;;8.43;6.00;;;;;;;;;;2092322;28;20131;-67
2023/05/14 04:14:57;;;;;;;7.38;5.57;;;;;;;;;;2091900;28;20620;-63
2023/05/14 04:16:16;;;;;;;5.85;5.30;;;;;;;;;;2089039;28;20041;-63
2023/05/14 04:17:35;;;;;;;6.97;5.28;;;;;;;;;;2095993;28;20029;-63
2023/05/14 04:18:54;;;;;;;6.97;6.00;;;;;;;;;;2095643;28;20397;-63
2023/05/14 04:20:13;;;;;;;8.18;6.00;;;;;;;;;;2090239;28;20389;-63
2023/05/14 04:21:32;;;;;;;7.90;5.05;;;;;;;;;;2092119;28;20520;-63
2023/05/14 04:22:51;;;;;;;7.70;5.18;;;;;;;;;;2091189;28;20016;-63
2023/05/14 04:24:10;;;;;;;8.93;5.20;;;;;;;;;;2090006;28;20017;-63
2023/05/14 04:25:29;;;;;;;5.53;5.03;;;;;;;;;;2090533;28;20041;-63
2023/05/14 04:26:48;;;;;;;6.18;5.60;;;;;;;;;;2084695;28;20420;-63
2023/05/14 04:28:07;;;;;;;8.15;5.60;;;;;;;;;;2092143;28;20033;-63
2023/05/14 04:29:26;;;;;;;5.93;4.88;;;;;;;;;;2094315;28;20044;-63
2023/05/14 04:30:45;;;;;;;6.18;5.57;;;;;;;;;;2090865;28;20029;-63
2023/05/14 04:32:04;;;;;;;6.97;5.20;;;;;;;;;;2093550;28;20029;-63
2023/05/14 04:33:23;;;;;;;8.80;5.72;;;;;;;;;;2095340;28;20044;-63
2023/05/14 04:34:42;;;;;;;7.60;5.07;;;;;;;;;;2093399;28;20049;-63
2023/05/14 04:36:01;;;;;;;7.88;5.20;;;;;;;;;;2093022;28;20091;-63
2023/05/14 04:37:20;;;;;;;9.07;5.65;;;;;;;;;;2092223;28;20400;-63
2023/05/14 04:38:39;;;;;;;5.85;5.40;;;;;;;;;;2092828;28;20025;-63
2023/05/14 04:39:58;;;;;;;8.18;5.20;;;;;;;;;;2090549;28;20385;-63
2023/05/14 04:41:17;;;;;;;6.22;5.10;;;;;;;;;;2091751;28;20195;-63
2023/05/14 04:42:36;;;;;;;5.63;5.07;;;;;;;;;;2080755;28;20525;-63
2023/05/14 04:43:55;;;;;;;6.15;5.32;;;;;;;;;;2085978;28;20024;-64
2023/05/14 04:45:15;;;;;;;9.18;5.70;;;;;;;;;;2089332;28;20112;-64
2023/05/14 04:46:34;;;;;;;6.35;4.95;;;;;;;;;;2093156;28;20072;-63
2023/05/14 04:47:53;;;;;;;7.50;5.18;;;;;;;;;;2093044;28;20029;-63
2023/05/14 04:49:12;;;;;;;7.53;5.53;;;;;;;;;;2092560;28;20036;-63
2023/05/14 04:50:31;;;;;;;5.45;5.00;;;;;;;;;;2091744;28;20490;-63
2023/05/14 04:51:51;;;;;;;7.50;5.38;;;;;;;;;;2094815;28;20071;-63
2023/05/14 04:53:10;;;;;;;9.93;5.57;;;;;;;;;;2095222;28;20025;-63
2023/05/14 04:54:29;;;;;;;7.13;5.43;;;;;;;;;;2092763;28;20029;-63
2023/05/14 04:55:48;;;;;;;13.57;6.68;;;;;;;;;;2092302;28;20025;-63
2023/05/14 04:57:07;;;;;;;10.93;5.63;;;;;;;;;;2093412;28;20025;-63
2023/05/14 04:58:28;;;;;;;6.35;5.30;;;;;;;;;;2094373;28;20491;-63
2023/05/14 04:59:47;;;;;;;8.23;5.53;;;;;;;;;;2084837;28;20685;-63
2023/05/14 05:01:06;;;;;;;10.32;5.55;;;;;;;;;;2089510;28;20060;-63
2023/05/14 05:02:24;;;;;;;10.43;5.82;;;;;;;;;;2092567;28;20482;-63
2023/05/14 05:03:43;;;;;;;10.68;5.88;;;;;;;;;;2092952;28;20112;-63
2023/05/14 05:05:02;;;;;;;13.68;5.57;;;;;;;;;;2092325;28;20041;-63
2023/05/14 05:06:21;;;;;;;10.73;5.30;;;;;;;;;;2093255;28;20032;-63
2023/05/14 05:07:40;;;;;;;9.50;5.38;;;;;;;;;;2092971;28;20477;-63
2023/05/14 05:09:00;;;;;;;6.93;4.95;;;;;;;;;;2091509;28;20028;-63
2023/05/14 05:10:19;;;;;;;7.68;4.28;;;;;;;;;;2093629;28;20025;-63
2023/05/14 05:11:38;;;;;;;6.85;4.90;;;;;;;;;;2094799;28;20057;-63
2023/05/14 05:12:57;;;;;;;7.22;4.97;;;;;;;;;;2091157;28;20048;-63
2023/05/14 05:14:16;;;;;;;9.20;5.05;;;;;;;;;;2094671;28;20040;-63
2023/05/14 05:15:35;;;;;;;8.57;5.10;;;;;;;;;;2086153;28;21290;-63
2023/05/14 05:16:54;;;;;;;9.27;4.85;;;;;;;;;;2091914;28;20029;-63
2023/05/14 05:18:13;;;;;;;8.43;4.90;;;;;;;;;;2093352;28;20020;-63
2023/05/14 05:19:32;;;;;;;9.40;5.75;;;;;;;;;;2091160;28;20111;-63
2023/05/14 05:20:51;;;;;;;7.32;5.20;;;;;;;;;;2094857;28;20103;-63
2023/05/14 05:22:10;;;;;;;20.30;5.75;;;;;;;;;;2090651;28;20441;-63
2023/05/14 05:23:29;;;;;;;8.13;5.43;;;;;;;;;;2094441;28;20029;-63
2023/05/14 05:24:48;;;;;;;10.68;5.53;;;;;;;;;;2090417;28;20482;-63
2023/05/14 05:26:07;;;;;;;9.57;5.45;;;;;;;;;;2088839;28;20032;-63
2023/05/14 05:27:26;;;;;;;12.30;5.63;;;;;;;;;;2088416;28;20037;-63
2023/05/14 05:28:45;;;;;;;6.03;4.45;;;;;;;;;;2089695;28;20498;-64
2023/05/14 05:30:05;;;;;;;12.90;5.10;;;;;;;;;;2092797;28;20036;-64
2023/05/14 05:31:24;;;;;;;8.68;5.43;;;;;;;;;;2093042;28;20028;-63
2023/05/14 05:32:43;;;;;;;15.63;6.28;;;;;;;;;;2091253;28;20025;-63
2023/05/14 05:34:02;;;;;;;8.48;4.93;;;;;;;;;;2085385;28;20060;-63
2023/05/14 05:35:21;;;;;;;6.82;5.20;;;;;;;;;;2088073;28;20493;-63
2023/05/14 05:36:40;;;;;;;7.95;5.40;;;;;;;;;;2092889;28;20024;-63
2023/05/14 05:37:59;;;;;;;8.02;5.10;;;;;;;;;;2089975;28;20013;-63
2023/05/14 05:39:18;;;;;;;7.07;4.20;;;;;;;;;;2088585;28;20024;-63
2023/05/14 05:40:37;;;;;;;8.25;5.07;;;;;;;;;;2094120;28;20064;-63
2023/05/14 05:41:56;;;;;;;7.85;5.15;;;;;;;;;;2091294;28;20056;-63
2023/05/14 05:43:15;;;;;;;15.65;5.50;;;;;;;;;;2091714;28;20063;-63
2023/05/14 05:44:34;;;;;;;6.55;4.40;;;;;;;;;;2093182;28;20432;-64
2023/05/14 05:45:53;;;;;;;7.70;4.88;;;;;;;;;;2091643;28;20029;-63
2023/05/14 05:47:12;;;;;;;5.25;4.75;;;;;;;;;;2087110;28;20032;-63
2023/05/14 05:48:31;;;;;;;5.53;4.75;;;;;;;;;;2093486;28;20543;-63
2023/05/14 05:49:50;;;;;;;12.55;4.95;;;;;;;;;;2089788;28;20037;-64
2023/05/14 05:51:10;;;;;;;5.90;5.10;;;;;;;;;;2087077;28;20028;-64
2023/05/14 05:52:29;;;;;;;5.45;5.03;;;;;;;;;;2091120;28;20033;-63
2023/05/14 05:53:48;;;;;;;7.85;4.90;;;;;;;;;;2093220;28;20124;-63
2023/05/14 05:55:07;;;;;;;8.95;4.63;;;;;;;;;;2092443;28;20100;-65
2023/05/14 05:56:26;;;;;;;8.40;4.85;;;;;;;;;;2090315;28;20040;-64
2023/05/14 05:57:45;;;;;;;8.80;4.55;;;;;;;;;;2085080;28;20107;-64
2023/05/14 05:59:03;;;;;;;14.57;4.82;;;;;;;;;;2092239;28;20025;-64
2023/05/14 06:00:23;;;;;;;5.35;4.43;;;;;;;;;;2088210;28;20036;-65
2023/05/14 06:01:42;;;;;;;4.63;4.18;;;;;;;;;;2092859;28;20029;-64
2023/05/14 06:03:01;;;;;;;4.80;4.30;;;;;;;;;;2093075;28;20037;-64
2023/05/14 06:04:20;;;;;;;7.95;5.20;;;;;;;;;;2094509;28;20037;-64
2023/05/14 06:05:39;;;;;;;10.88;4.68;;;;;;;;;;2091578;28;20162;-64
2023/05/14 06:06:58;;;;;;;7.20;4.88;;;;;;;;;;2087574;28;20033;-64
2023/05/14 06:08:17;;;;;;;7.03;4.82;;;;;;;;;;2094134;28;20029;-64
2023/05/14 06:09:36;;;;;;;5.78;5.03;;;;;;;;;;2092156;28;20056;-64
2023/05/14 06:10:56;;;;;;;6.72;5.10;;;;;;;;;;2086217;28;20494;-62
2023/05/14 06:12:15;;;;;;;6.53;5.10;;;;;;;;;;2090861;28;20040;-65
2023/05/14 06:13:34;;;;;;;10.18;4.70;;;;;;;;;;2084495;28;20112;-63
2023/05/14 06:14:54;;;;;;;10.48;5.30;;;;;;;;;;2091678;28;20025;-64
2023/05/14 06:16:13;;;;;;;10.60;5.05;;;;;;;;;;2092462;28;20436;-63
2023/05/14 06:17:32;;;;;;;6.65;4.72;;;;;;;;;;2091124;28;20036;-63
2023/05/14 06:18:52;;;;;;;9.32;4.32;;;;;;;;;;2089515;28;20029;-64
2023/05/14 06:20:11;;;;;;;7.88;4.25;;;;;;;;;;2091293;28;20029;-64
2023/05/14 06:21:29;;;;;;;7.65;4.68;;;;;;;;;;2089762;28;20108;-64
2023/05/14 06:22:48;;;;;;;8.90;4.68;;;;;;;;;;2089833;28;20020;-64
2023/05/14 06:24:07;;;;;;;7.68;4.20;;;;;;;;;;2089293;28;20087;-64
2023/05/14 06:25:26;;;;;;;7.97;4.82;;;;;;;;;;2092791;28;20444;-64
2023/05/14 06:26:45;;;;;;;5.35;4.53;;;;;;;;;;2089491;28;20041;-64
2023/05/14 06:28:04;;;;;;;6.30;4.35;;;;;;;;;;2091082;28;20085;-64
2023/05/14 06:29:23;;;;;;;8.20;4.40;;;;;;;;;;2089719;28;20414;-62
2023/05/14 06:30:42;;;;;;;6.32;4.60;;;;;;;;;;2087413;28;20033;-62
2023/05/14 06:32:02;;;;;;;4.95;4.55;;;;;;;;;;2082926;28;20764;-62
2023/05/14 06:33:28;;;;;;;6.97;4.18;;;;;;;;;;2092221;28;20432;-62
2023/05/14 06:34:47;;;;;;;6.20;4.53;;;;;;;;;;2093287;28;20029;-62
2023/05/14 06:36:06;;;;;;;8.25;4.75;;;;;;;;;;2091612;28;20398;-63
2023/05/14 06:37:25;;;;;;;8.25;4.63;;;;;;;;;;2092280;28;20108;-62
2023/05/14 06:38:44;;;;;;;9.80;5.40;;;;;;;;;;2088511;28;20025;-62
2023/05/14 06:40:04;;;;;;;5.25;4.65;;;;;;;;;;2090782;28;20041;-63
2023/05/14 06:41:23;;;;;;;5.47;4.18;;;;;;;;;;2091939;28;20913;-63
2023/05/14 06:42:42;;;;;;;6.07;4.28;;;;;;;;;;2090449;28;20028;-63
2023/05/14 06:44:01;;;;;;;8.48;4.63;;;;;;;;;;2091681;28;20032;-63
2023/05/14 06:45:20;;;;;;;4.57;4.18;;;;;;;;;;2087628;28;20033;-64
2023/05/14 06:46:39;;;;;;;7.55;4.68;;;;;;;;;;2092616;28;20116;-64
2023/05/14 06:47:58;;;;;;;6.53;3.97;;;;;;;;;;2091694;28;20064;-64
2023/05/14 06:49:17;;;;;;;6.90;4.50;;;;;;;;;;2089288;28;20135;-64
2023/05/14 06:50:36;;;;;;;8.80;4.50;;;;;;;;;;2095662;28;20041;-64
2023/05/14 06:51:55;;;;;;;6.40;3.97;;;;;;;;;;2094032;28;20493;-64
2023/05/14 06:53:15;;;;;;;9.02;4.55;;;;;;;;;;2088882;28;20036;-64
2023/05/14 06:54:34;;;;;;;10.73;4.45;;;;;;;;;;2090122;28;20049;-64
2023/05/14 06:55:55;;;;;;;5.78;4.25;;;;;;;;;;2089867;28;20390;-64
2023/05/14 06:57:14;;;;;;;7.68;4.22;;;;;;;;;;2090660;28;20039;-64
2023/05/14 06:58:32;;;;;;;10.30;4.18;;;;;;;;;;2094857;28;20025;-63
2023/05/14 06:59:51;;;;;;;6.63;4.53;;;;;;;;;;2089814;28;20033;-64
2023/05/14 07:01:10;;;;;;;4.60;3.55;;;;;;;;;;2093797;28;20037;-64
2023/05/14 07:02:29;;;;;;;9.13;4.30;;;;;;;;;;2092045;28;20025;-64
2023/05/14 07:03:48;;;;;;;4.97;4.40;;;;;;;;;;2093832;28;20422;-64
2023/05/14 07:05:07;;;;;;;13.20;4.90;;;;;;;;;;2088931;28;20481;-64
2023/05/14 07:06:27;;;;;;;13.70;4.60;;;;;;;;;;2091963;28;20180;-63
2023/05/14 07:07:46;;;;;;;16.67;4.68;;;;;;;;;;2092528;28;20111;-64
2023/05/14 07:09:05;;;;;;;18.70;5.15;;;;;;;;;;2086580;28;20033;-64
2023/05/14 07:10:25;;;;;;;15.02;4.72;;;;;;;;;;2091294;28;20033;-64
2023/05/14 07:11:44;;;;;;;10.20;4.10;;;;;;;;;;2091113;28;20029;-64
2023/05/14 07:13:03;;;;;;;5.93;3.92;;;;;;;;;;2093559;28;20390;-64
2023/05/14 07:14:21;;;;;;;10.02;4.22;;;;;;;;;;2091037;28;20029;-65
2023/05/14 07:15:41;;;;;;;4.85;4.35;;;;;;;;;;2093457;28;20029;-64
2023/05/14 07:16:59;;;;;;;6.45;3.90;;;;;;;;;;2089476;28;20052;-64
2023/05/14 07:18:18;;;;;;;5.53;3.67;;;;;;;;;;2089688;28;20037;-69
2023/05/14 07:19:37;;;;;;;4.85;3.67;;;;;;;;;;2093381;28;20028;-64
2023/05/14 07:20:56;;;;;;;7.43;3.90;;;;;;;;;;2094692;28;20036;-65
2023/05/14 07:22:15;;;;;;;5.40;4.13;;;;;;;;;;2092515;28;20033;-65
2023/05/14 07:23:35;;;;;;;4.32;3.78;;;;;;;;;;2092328;28;20439;-65
2023/05/14 07:24:54;;;;;;;7.05;3.85;;;;;;;;;;2086954;28;20945;-65
2023/05/14 07:26:13;;;;;;;6.43;4.13;;;;;;;;;;2089497;28;20021;-65
2023/05/14 07:27:33;;;;;;;5.22;3.92;;;;;;;;;;2093613;28;20032;-64
2023/05/14 07:28:52;;;;;;;6.22;3.75;;;;;;;;;;2093352;28;20025;-66
2023/05/14 07:30:11;;;;;;;6.80;3.78;;;;;;;;;;2097534;28;20959;-65
2023/05/14 07:31:30;;;;;;;11.77;3.90;;;;;;;;;;2095287;28;20037;-65
2023/05/14 07:32:49;;;;;;;5.95;3.75;;;;;;;;;;2092394;28;20033;-65
2023/05/14 07:34:09;;;;;;;5.82;4.45;;;;;;;;;;2089859;28;20032;-64
2023/05/14 07:35:28;;;;;;;5.30;3.22;;;;;;;;;;2090463;28;20474;-64
2023/05/14 07:36:47;;;;;;;6.43;3.58;;;;;;;;;;2088630;28;20032;-64
2023/05/14 07:38:06;;;;;;;7.68;4.20;;;;;;;;;;2092264;28;20032;-64
2023/05/14 07:39:25;;;;;;;4.72;3.40;;;;;;;;;;2092491;28;20033;-64
2023/05/14 07:40:44;;;;;;;8.52;3.72;;;;;;;;;;2093322;28;20033;-64
2023/05/14 07:42:04;;;;;;;11.48;3.80;;;;;;;;;;2093785;28;20044;-64
2023/05/14 07:43:22;;;;;;;7.32;3.63;;;;;;;;;;2088040;28;20024;-65
2023/05/14 07:44:42;;;;;;;6.82;3.78;;;;;;;;;;2090354;28;20028;-65
2023/05/14 07:46:01;;;;;;;4.72;3.17;;;;;;;;;;2093702;28;20486;-65
2023/05/14 07:47:20;;;;;;;11.93;4.28;;;;;;;;;;2092905;28;20041;-65
2023/05/14 07:48:39;;;;;;;6.30;3.70;;;;;;;;;;2090021;28;20417;-65
2023/05/14 07:49:58;;;;;;;10.00;4.30;;;;;;;;;;2093126;28;20083;-65
2023/05/14 07:51:17;;;;;;;7.85;3.72;;;;;;;;;;2095299;28;20036;-65
2023/05/14 07:52:36;;;;;;;7.07;4.38;;;;;;;;;;2093458;28;20044;-64
2023/05/14 07:53:55;;;;;;;8.10;4.07;;;;;;;;;;2082199;28;20029;-66
2023/05/14 07:55:14;;;;;;;5.05;3.75;;;;;;;;;;2088490;28;20029;-66